Time;durP1;ratioP1;P1;durP2;ratioP2;P2;SDS_P1;SDS_P2;PMS_P1;PMS_P2;Temp;Humidity;BMP_temperature;BMP_pressure;BME280_temperature;BME280_humidity;BME280_pressure;Samples;Min_cycle;Max_cycle;Signal;HPM_P1;HPM_P2
2023/05/09 00:00:57;;;;;;;4.07;2.60;;;13.70;73.00;;;13.26;49.25;101401.41;5013439;28;20231;-71
2023/05/09 00:03:29;;;;;;;4.40;3.00;;;13.70;72.40;;;13.11;49.15;101398.53;5013527;28;20564;-71
2023/05/09 00:06:01;;;;;;;4.20;3.10;;;13.50;72.40;;;13.08;49.70;101401.50;5013422;28;20219;-71
2023/05/09 00:08:34;;;;;;;4.80;2.90;;;13.50;73.10;;;13.07;49.90;101394.44;5013492;28;20196;-71
2023/05/09 00:11:06;;;;;;;4.97;2.87;;;13.40;73.30;;;13.07;50.27;101389.06;5013372;28;20227;-71
2023/05/09 00:13:38;;;;;;;3.97;2.90;;;13.50;73.80;;;12.89;49.76;101407.09;5013401;28;20188;-71
2023/05/09 00:16:12;;;;;;;5.60;2.60;;;13.30;73.20;;;12.96;50.02;101402.75;5013388;28;20199;-71
2023/05/09 00:18:44;;;;;;;5.97;3.07;;;13.30;73.70;;;12.96;50.04;101394.69;5013376;28;20195;-71
2023/05/09 00:21:16;;;;;;;6.67;2.80;;;13.30;74.30;;;12.87;50.80;101392.97;5013259;28;20223;-71
2023/05/09 00:23:48;;;;;;;3.03;2.80;;;13.20;74.10;;;12.73;50.71;101390.88;5014384;28;20203;-71
2023/05/09 00:26:21;;;;;;;5.67;3.07;;;13.20;74.10;;;12.79;51.74;101382.16;5016920;28;20219;-71
2023/05/09 00:28:53;;;;;;;4.60;2.87;;;13.20;75.20;;;12.90;51.15;101387.28;5017158;28;20207;-71
2023/05/09 00:31:25;;;;;;;3.23;2.90;;;13.30;75.60;;;12.80;51.36;101387.41;5016851;28;20196;-71
2023/05/09 00:33:58;;;;;;;4.73;2.87;;;13.20;75.10;;;12.78;50.82;101384.00;5016686;28;20269;-71
2023/05/09 00:36:31;;;;;;;3.97;2.67;;;13.20;75.10;;;12.79;51.17;101390.22;5016985;28;20195;-71
2023/05/09 00:39:05;;;;;;;4.33;3.47;;;13.20;75.60;;;12.74;51.58;101389.88;5016712;28;20192;-71
2023/05/09 00:41:36;;;;;;;4.43;3.20;;;13.10;76.20;;;12.73;51.27;101380.13;5016728;28;20195;-71
2023/05/09 00:44:08;;;;;;;6.00;2.70;;;13.10;75.40;;;12.73;51.70;101372.91;5016654;28;20242;-71
2023/05/09 00:46:40;;;;;;;4.53;2.97;;;13.10;76.10;;;12.77;51.63;101370.75;5016840;28;20208;-71
2023/05/09 00:49:12;;;;;;;4.03;2.80;;;13.10;76.70;;;12.63;51.97;101370.34;5016527;28;20196;-71
2023/05/09 00:51:44;;;;;;;7.03;3.23;;;13.00;76.80;;;12.57;52.45;101375.47;5016574;28;20226;-72
2023/05/09 00:54:17;;;;;;;3.40;2.70;;;12.90;77.60;;;12.58;51.67;101367.28;5016491;28;20201;-71
2023/05/09 00:56:50;;;;;;;5.03;3.10;;;12.90;77.80;;;12.54;52.35;101359.69;5016127;28;20557;-71
2023/05/09 00:59:22;;;;;;;4.23;3.03;;;12.90;77.50;;;12.57;52.40;101362.03;5016009;28;20238;-71
2023/05/09 01:01:55;;;;;;;3.50;2.70;;;12.90;77.90;;;12.47;52.81;101359.47;5016055;28;20196;-71
2023/05/09 01:04:27;;;;;;;5.57;3.17;;;12.80;78.30;;;12.53;52.41;101353.50;5016275;28;20258;-71
2023/05/09 01:07:09;;;;;;;4.83;3.27;;;12.90;78.60;;;12.43;52.21;101352.72;5016193;28;20211;-71
2023/05/09 01:09:55;;;;;;;4.20;2.97;;;12.80;78.60;;;12.43;52.61;101350.03;5016374;28;20227;-71
2023/05/09 01:12:37;;;;;;;5.17;3.20;;;12.80;78.60;;;12.38;53.16;101347.00;5016144;28;20192;-71
2023/05/09 01:15:18;;;;;;;3.87;3.20;;;12.70;79.70;;;12.28;53.27;101342.72;5016050;28;20210;-71
2023/05/09 01:17:58;;;;;;;6.20;3.30;;;12.60;79.50;;;12.27;52.68;101341.03;5015724;28;20188;-71
2023/05/09 01:20:38;;;;;;;6.30;3.50;;;12.60;79.60;;;12.19;53.16;101349.88;5015901;28;20310;-71
2023/05/09 01:23:48;;;;;;;4.30;3.03;;;12.60;80.30;;;12.17;53.76;101346.50;5015967;28;20195;-71
2023/05/09 01:26:36;;;;;;;4.67;3.03;;;12.50;80.60;;;12.05;54.22;101334.34;5015780;28;20211;-71
2023/05/09 01:29:36;;;;;;;5.57;3.57;;;12.40;81.10;;;12.06;54.36;101330.63;5015693;28;20207;-71
2023/05/09 01:32:15;;;;;;;4.00;3.20;;;12.40;81.50;;;12.05;54.47;101328.97;5015667;28;20211;-71
2023/05/09 01:34:51;;;;;;;4.20;3.20;;;12.40;81.60;;;12.03;54.33;101322.88;5015372;28;20195;-71
2023/05/09 01:37:29;;;;;;;3.93;3.20;;;12.40;82.00;;;11.91;54.22;101325.00;5015201;28;20649;-71
2023/05/09 01:40:05;;;;;;;7.60;3.97;;;12.30;82.10;;;11.86;55.11;101321.91;5015560;28;20226;-71
2023/05/09 01:42:45;;;;;;;6.03;3.70;;;12.20;82.50;;;11.79;55.01;101318.16;5015564;28;20200;-71
2023/05/09 01:45:21;;;;;;;5.63;3.50;;;12.20;82.80;;;11.81;55.01;101313.50;5015174;28;20563;-71
2023/05/09 01:47:55;;;;;;;4.80;3.50;;;12.10;83.80;;;11.82;54.75;101317.00;5015404;28;20215;-71
2023/05/09 01:50:29;;;;;;;6.77;3.60;;;12.20;83.60;;;11.77;55.24;101308.59;5015381;28;20603;-71
2023/05/09 01:53:05;;;;;;;5.43;4.00;;;12.10;83.80;;;11.69;55.10;101310.16;5015397;28;20191;-71
2023/05/09 01:55:40;;;;;;;5.93;3.67;;;12.10;83.90;;;11.65;56.18;101303.41;5015290;28;20213;-71
2023/05/09 01:58:13;;;;;;;5.73;3.80;;;12.00;85.00;;;11.59;56.50;101303.19;5015231;28;20282;-71
2023/05/09 02:00:47;;;;;;;4.63;4.10;;;12.00;85.10;;;11.58;55.81;101302.34;5015115;28;20226;-71
2023/05/09 02:03:20;;;;;;;4.43;4.03;;;12.00;85.80;;;11.46;56.47;101313.47;5015328;28;20214;-71
2023/05/09 02:05:52;;;;;;;4.73;4.00;;;11.90;85.90;;;11.45;56.35;101317.97;5015097;28;20192;-71
2023/05/09 02:08:26;;;;;;;7.53;4.60;;;11.90;86.40;;;11.46;57.23;101302.72;5014992;28;20211;-71
2023/05/09 02:10:58;;;;;;;6.17;4.20;;;11.90;86.60;;;11.42;56.75;101307.56;5015114;28;20227;-71
2023/05/09 02:13:30;;;;;;;8.17;4.50;;;11.80;86.70;;;11.36;57.01;101300.13;5014927;28;20606;-71
2023/05/09 02:16:05;;;;;;;5.30;3.70;;;11.80;87.30;;;11.35;57.21;101301.13;5014607;28;20198;-71
2023/05/09 02:18:37;;;;;;;6.77;4.33;;;11.70;87.40;;;11.27;57.21;101292.16;5014849;28;20225;-71
2023/05/09 02:21:09;;;;;;;7.10;4.20;;;11.70;87.80;;;11.27;57.40;101298.34;5014678;28;20242;-71
2023/05/09 02:23:41;;;;;;;5.10;4.40;;;11.70;88.40;;;11.11;57.90;101300.84;5014462;28;20291;-71
2023/05/09 02:26:13;;;;;;;6.03;4.50;;;11.50;88.50;;;11.16;58.57;101298.56;5014703;28;20199;-71
2023/05/09 02:28:48;;;;;;;6.27;4.83;;;11.60;89.60;;;11.02;58.28;101293.72;5014600;28;20223;-71
2023/05/09 02:31:25;;;;;;;5.57;4.63;;;11.50;89.50;;;11.04;58.58;101297.06;5014838;28;20230;-71
2023/05/09 02:33:58;;;;;;;4.83;4.43;;;11.50;90.00;;;11.08;58.73;101298.47;5014437;28;20222;-71
2023/05/09 02:36:31;;;;;;;5.10;4.60;;;11.50;89.80;;;11.09;58.37;101303.69;5014220;28;20187;-71
2023/05/09 02:39:03;;;;;;;5.70;4.33;;;11.60;90.00;;;11.19;58.54;101306.31;5014126;28;20644;-71
2023/05/09 02:41:35;;;;;;;5.77;4.40;;;11.60;90.10;;;11.11;58.22;101304.38;5014477;28;20286;-71
2023/05/09 02:44:07;;;;;;;5.73;4.77;;;11.50;90.00;;;11.15;58.61;101303.09;5014391;28;20195;-71
2023/05/09 02:46:40;;;;;;;6.03;4.63;;;11.60;90.20;;;10.99;59.35;101299.38;5014265;28;20196;-71
2023/05/09 02:49:12;;;;;;;5.40;4.70;;;11.40;90.30;;;11.08;59.21;101290.44;5014259;28;20192;-71
2023/05/09 02:52:02;;;;;;;8.23;4.93;;;11.50;90.60;;;11.06;59.20;101284.38;5014260;28;20188;-71
2023/05/09 02:54:34;;;;;;;7.00;5.30;;;11.40;90.60;;;10.85;59.99;101281.13;5013947;28;20637;-71
2023/05/09 02:57:06;;;;;;;7.07;5.07;;;11.30;90.90;;;10.69;60.31;101281.75;5014182;28;20187;-71
2023/05/09 02:59:38;;;;;;;6.10;5.33;;;11.10;91.30;;;10.73;60.53;101290.31;5014067;28;20234;-71
2023/05/09 03:02:11;;;;;;;6.10;5.50;;;11.20;91.40;;;10.75;60.73;101280.31;5014256;28;20286;-71
2023/05/09 03:04:43;;;;;;;6.07;5.47;;;11.20;91.60;;;10.71;60.72;101279.78;5014086;28;20192;-71
2023/05/09 03:07:15;;;;;;;7.77;5.37;;;11.20;91.70;;;10.66;60.71;101277.53;5013990;28;20219;-71
2023/05/09 03:09:46;;;;;;;8.80;6.30;;;11.10;91.70;;;10.41;61.76;101270.16;5013947;28;20258;-71
2023/05/09 03:12:18;;;;;;;7.57;6.00;;;11.00;92.00;;;10.52;61.48;101269.97;5013985;28;20188;-71
2023/05/09 03:14:50;;;;;;;6.00;5.40;;;11.00;92.40;;;10.49;61.34;101270.28;5013966;28;20203;-71
2023/05/09 03:17:23;;;;;;;6.17;4.90;;;11.00;92.40;;;10.56;61.48;101273.19;5013913;28;20187;-71
2023/05/09 03:19:55;;;;;;;7.77;5.80;;;11.00;92.30;;;10.47;61.95;101272.25;5013770;28;20674;-71
2023/05/09 03:22:27;;;;;;;6.53;5.80;;;11.00;92.50;;;10.39;62.12;101268.63;5013857;28;20199;-71
2023/05/09 03:24:59;;;;;;;7.33;6.07;;;10.90;92.60;;;10.44;62.02;101261.00;5013521;28;20593;-71
2023/05/09 03:27:31;;;;;;;8.97;5.53;;;10.90;93.10;;;10.38;61.99;101256.22;5013595;28;20215;-71
2023/05/09 03:30:03;;;;;;;9.10;5.83;;;10.80;92.80;;;10.36;62.57;101259.06;5013043;28;20235;-71
2023/05/09 03:32:36;;;;;;;9.70;6.30;;;10.80;93.00;;;10.33;62.61;101258.50;5013570;28;20211;-71
2023/05/09 03:35:10;;;;;;;10.17;6.33;;;10.80;93.10;;;10.28;62.72;101256.25;5013996;28;20195;-71
2023/05/09 03:37:42;;;;;;;7.97;6.37;;;10.80;93.20;;;10.15;63.17;101261.09;5013370;28;20595;-71
2023/05/09 03:40:14;;;;;;;7.13;6.00;;;10.60;93.50;;;10.19;63.39;101257.13;5013279;28;20708;-71
2023/05/09 03:42:46;;;;;;;6.57;5.87;;;10.60;93.70;;;10.24;63.15;101259.38;5013589;28;20196;-70
2023/05/09 03:45:18;;;;;;;8.87;6.10;;;10.80;93.60;;;10.18;63.07;101271.50;5013309;28;20198;-71
2023/05/09 03:47:51;;;;;;;7.80;5.93;;;10.70;93.60;;;10.23;63.38;101261.22;5013511;28;20216;-71
2023/05/09 03:50:23;;;;;;;7.80;6.10;;;10.70;93.70;;;10.19;63.62;101265.16;5013528;28;20285;-71
2023/05/09 03:52:55;;;;;;;6.83;6.13;;;10.70;94.20;;;10.22;63.70;101272.91;5013500;28;20207;-71
2023/05/09 03:55:28;;;;;;;9.13;5.97;;;10.70;93.90;;;10.25;63.59;101259.22;5013572;28;20198;-71
2023/05/09 03:58:00;;;;;;;7.80;6.70;;;10.70;93.80;;;10.17;63.79;101265.28;5013493;28;20188;-71
2023/05/09 04:00:31;;;;;;;8.73;6.37;;;10.70;93.90;;;10.13;63.60;101252.34;5017009;28;20662;-71
2023/05/09 04:03:06;;;;;;;8.53;7.10;;;10.60;94.10;;;10.18;64.12;101255.44;5017379;28;20191;-71
2023/05/09 04:05:38;;;;;;;7.33;6.33;;;10.70;94.20;;;10.13;63.94;101252.34;5017319;28;20269;-71
2023/05/09 04:08:10;;;;;;;7.57;6.40;;;10.60;94.20;;;10.04;64.67;101253.19;5017191;28;20211;-71
2023/05/09 04:10:42;;;;;;;8.40;6.50;;;10.50;94.30;;;10.07;64.31;101242.19;5017136;28;20595;-71
2023/05/09 04:13:14;;;;;;;6.63;6.03;;;10.60;94.50;;;9.96;64.78;101242.38;5017186;28;20188;-71
2023/05/09 04:15:46;;;;;;;7.00;6.30;;;10.50;94.60;;;10.08;64.58;101241.22;5017157;28;20202;-71
2023/05/09 04:18:19;;;;;;;10.57;7.20;;;10.60;95.10;;;10.09;64.88;101240.25;5017111;28;20192;-71
2023/05/09 04:20:51;;;;;;;7.33;6.37;;;10.60;94.70;;;10.09;64.74;101237.56;5016995;28;20231;-71
2023/05/09 04:23:23;;;;;;;9.33;6.40;;;10.60;94.60;;;10.07;64.52;101242.19;5017048;28;20200;-71
2023/05/09 04:25:55;;;;;;;7.23;6.53;;;10.60;94.60;;;10.13;64.74;101225.59;5016665;28;20665;-71
2023/05/09 04:28:27;;;;;;;7.13;6.37;;;10.70;94.80;;;9.89;65.19;101233.25;5016566;28;20611;-71
2023/05/09 04:30:59;;;;;;;9.67;6.90;;;10.50;94.80;;;9.96;64.94;101234.38;5016790;28;20242;-71
2023/05/09 04:33:33;;;;;;;8.43;7.03;;;10.50;94.90;;;10.04;65.46;101229.13;5016365;28;20672;-71
2023/05/09 04:36:05;;;;;;;7.77;6.80;;;10.60;95.00;;;9.92;65.61;101228.47;5016759;28;20195;-71
2023/05/09 04:38:37;;;;;;;8.20;7.10;;;10.50;94.90;;;9.92;65.62;101222.25;5016770;28;20195;-71
2023/05/09 04:41:08;;;;;;;8.13;6.73;;;10.50;95.10;;;9.92;65.62;101227.59;5016883;28;20231;-71
2023/05/09 04:43:41;;;;;;;8.87;7.03;;;10.40;95.20;;;9.92;65.70;101224.94;5016628;28;20192;-71
2023/05/09 04:46:13;;;;;;;7.83;7.03;;;10.50;95.30;;;9.88;66.03;101219.03;5016565;28;20200;-71
2023/05/09 04:48:46;;;;;;;9.63;7.37;;;10.40;95.30;;;9.92;66.04;101216.91;5016489;28;20262;-71
2023/05/09 04:51:18;;;;;;;8.67;7.10;;;10.50;95.50;;;9.93;66.01;101215.94;5016431;28;20228;-71
2023/05/09 04:53:51;;;;;;;9.67;6.90;;;10.40;95.50;;;9.89;66.08;101217.19;5016152;28;20194;-71
2023/05/09 04:56:22;;;;;;;8.43;7.00;;;10.50;95.60;;;9.88;66.19;101223.53;5016669;28;20188;-71
2023/05/09 04:58:54;;;;;;;8.93;8.03;;;10.40;95.70;;;9.79;66.68;101221.72;5016176;28;20664;-71
2023/05/09 05:01:26;;;;;;;8.83;7.90;;;10.40;95.80;;;9.72;66.78;101228.63;5016007;28;20641;-71
2023/05/09 05:03:59;;;;;;;9.83;7.90;;;10.30;95.90;;;9.82;66.75;101232.13;5016277;28;20192;-71
2023/05/09 05:06:31;;;;;;;11.30;7.17;;;10.40;95.90;;;9.95;66.44;101230.00;5016175;28;20192;-71
2023/05/09 05:09:03;;;;;;;8.07;7.27;;;10.50;95.80;;;10.02;66.47;101228.44;5015672;28;20582;-71
2023/05/09 05:11:35;;;;;;;10.37;7.57;;;10.60;95.90;;;10.04;66.43;101226.44;5014960;28;20572;-71
2023/05/09 05:14:07;;;;;;;10.90;7.70;;;10.60;95.70;;;10.07;66.01;101234.16;5016064;28;20203;-71
2023/05/09 05:16:39;;;;;;;11.00;7.60;;;10.60;95.60;;;10.09;66.18;101224.19;5016032;28;20195;-71
2023/05/09 05:19:12;;;;;;;8.13;7.33;;;10.60;95.70;;;10.13;66.46;101214.88;5015518;28;20679;-71
2023/05/09 05:21:44;;;;;;;9.27;7.67;;;10.70;95.70;;;10.07;66.25;101210.94;5015589;28;20553;-71
2023/05/09 05:24:16;;;;;;;10.40;7.33;;;10.70;95.60;;;10.06;66.58;101209.28;5015792;28;20218;-71
2023/05/09 05:26:47;;;;;;;9.00;6.97;;;10.70;95.70;;;10.10;66.40;101220.53;5015889;28;20275;-71
2023/05/09 05:29:19;;;;;;;10.57;7.93;;;10.70;95.80;;;10.08;66.54;101212.63;5015248;28;20239;-71
2023/05/09 05:31:53;;;;;;;8.97;7.37;;;10.70;95.80;;;10.15;66.59;101213.78;5016113;28;20195;-71
2023/05/09 05:34:26;;;;;;;8.10;6.87;;;10.70;95.70;;;10.17;66.43;101206.44;5015604;28;20274;-71
2023/05/09 05:36:58;;;;;;;8.83;7.13;;;10.80;95.70;;;10.23;66.80;101205.03;5015621;28;20202;-71
2023/05/09 05:39:29;;;;;;;8.83;7.10;;;10.80;95.90;;;10.29;66.68;101209.78;5015471;28;20231;-71
2023/05/09 05:42:01;;;;;;;8.70;7.60;;;10.90;95.90;;;10.38;66.91;101208.03;5015247;28;20192;-71
2023/05/09 05:44:33;;;;;;;8.67;7.37;;;11.00;96.00;;;10.43;66.83;101211.13;5015448;28;20188;-71
2023/05/09 05:47:05;;;;;;;8.77;7.30;;;11.10;95.90;;;10.47;66.09;101197.31;5015134;28;20594;-71
2023/05/09 05:49:38;;;;;;;8.00;7.17;;;11.10;95.60;;;10.49;65.73;101200.66;5014974;28;20703;-71
2023/05/09 05:52:10;;;;;;;7.97;7.00;;;11.10;95.40;;;10.53;65.56;101196.72;5015306;28;20203;-71
2023/05/09 05:54:42;;;;;;;9.73;7.87;;;11.20;95.30;;;10.56;65.87;101196.41;5015311;28;20208;-71
2023/05/09 05:57:13;;;;;;;9.17;7.40;;;11.20;95.60;;;10.59;66.20;101198.78;5015262;28;20198;-71
2023/05/09 05:59:46;;;;;;;7.83;7.03;;;11.20;95.60;;;10.65;65.82;101194.69;5015086;28;20224;-71
2023/05/09 06:02:19;;;;;;;8.83;7.33;;;11.30;95.50;;;10.65;66.08;101198.19;5015178;28;20188;-71
2023/05/09 06:04:52;;;;;;;8.87;7.50;;;11.30;95.60;;;10.70;66.29;101192.38;5015155;28;20200;-71
2023/05/09 06:07:27;;;;;;;7.73;6.97;;;11.30;95.60;;;10.69;66.16;101191.53;5015098;28;20238;-71
2023/05/09 06:09:58;;;;;;;8.80;7.70;;;11.30;95.60;;;10.75;66.36;101184.75;5015177;28;20238;-71
2023/05/09 06:12:30;;;;;;;9.53;7.73;;;11.40;96.20;;;10.81;66.69;101177.94;5014718;28;20254;-71
2023/05/09 06:15:03;;;;;;;9.93;7.90;;;11.40;95.90;;;10.88;66.86;101174.50;5014684;28;20191;-71
2023/05/09 06:17:35;;;;;;;12.40;7.23;;;11.50;95.90;;;10.92;66.07;101172.38;5015039;28;20199;-71
2023/05/09 06:20:10;;;;;;;12.77;7.90;;;11.50;95.50;;;10.98;65.77;101174.44;5014966;28;20262;-71
2023/05/09 06:22:42;;;;;;;9.67;7.73;;;11.60;95.40;;;11.03;65.57;101166.78;5014568;28;20199;-71
2023/05/09 06:25:13;;;;;;;8.90;8.00;;;11.60;95.20;;;11.09;65.56;101171.53;5014519;28;20588;-71
2023/05/09 06:27:46;;;;;;;10.43;8.23;;;11.70;95.20;;;11.11;65.20;101164.19;5014773;28;20223;-71
2023/05/09 06:30:18;;;;;;;10.30;8.20;;;11.80;95.20;;;11.16;65.54;101162.72;5014620;28;20258;-71
2023/05/09 06:32:58;;;;;;;14.60;9.03;;;11.80;95.20;;;11.25;65.34;101155.59;5014449;28;20302;-71
2023/05/09 06:35:32;;;;;;;11.03;8.13;;;11.90;95.20;;;11.31;65.14;101159.50;5014597;28;20207;-71
2023/05/09 06:38:03;;;;;;;8.33;7.10;;;12.00;95.20;;;11.36;64.86;101163.41;5014530;28;20203;-71
2023/05/09 06:40:35;;;;;;;8.07;7.27;;;12.00;94.90;;;11.43;64.97;101158.25;5015185;28;20223;-71
2023/05/09 06:43:07;;;;;;;7.60;6.90;;;12.10;94.90;;;11.48;64.85;101155.94;5014453;28;20188;-71
2023/05/09 06:45:39;;;;;;;10.57;7.60;;;12.10;95.00;;;11.56;64.54;101156.84;5014083;28;20672;-71
2023/05/09 06:48:11;;;;;;;8.10;7.20;;;12.20;94.70;;;11.62;65.11;101156.22;5014407;28;20261;-71
2023/05/09 06:50:45;;;;;;;8.07;7.27;;;12.30;94.90;;;11.68;65.22;101152.91;5014148;28;20248;-71
2023/05/09 06:53:17;;;;;;;8.00;6.60;;;12.30;95.00;;;11.77;64.46;101150.31;5014036;28;20210;-71
2023/05/09 06:55:49;;;;;;;9.03;7.80;;;12.40;94.80;;;11.84;65.47;101140.66;5014026;28;20188;-71
2023/05/09 06:58:20;;;;;;;8.00;7.20;;;12.50;95.10;;;11.95;64.93;101137.69;5014221;28;20254;-71
2023/05/09 07:00:52;;;;;;;8.53;6.50;;;12.60;94.90;;;12.01;64.86;101131.69;5014064;28;20231;-71
2023/05/09 07:03:25;;;;;;;9.97;7.33;;;12.70;94.60;;;12.07;63.72;101128.34;5014361;28;20192;-71
2023/05/09 07:05:58;;;;;;;8.17;6.70;;;12.80;94.50;;;12.25;64.47;101123.75;5014129;28;20219;-71
2023/05/09 07:08:30;;;;;;;8.87;6.80;;;12.80;94.60;;;12.27;64.46;101121.72;5013731;28;20539;-71
2023/05/09 07:11:02;;;;;;;7.40;6.40;;;12.90;94.70;;;12.39;64.17;101115.06;5014234;28;20242;-71
2023/05/09 07:13:34;;;;;;;7.53;6.73;;;13.00;94.80;;;12.42;64.51;101114.75;5014108;28;20200;-71
2023/05/09 07:16:05;;;;;;;9.53;7.00;;;13.10;94.40;;;12.62;62.79;101110.78;5013913;28;20214;-71
2023/05/09 07:18:38;;;;;;;7.53;6.77;;;13.30;94.00;;;12.67;63.04;101112.97;5013998;28;20192;-71
2023/05/09 07:21:11;;;;;;;7.30;6.50;;;13.30;93.60;;;12.71;63.75;101106.25;5013839;28;20226;-71
2023/05/09 07:23:42;;;;;;;7.07;6.37;;;13.40;94.10;;;12.79;62.99;101102.72;5013889;28;20192;-71
2023/05/09 07:26:14;;;;;;;6.50;5.80;;;13.50;93.80;;;12.87;63.29;101108.97;5013930;28;20198;-71
2023/05/09 07:28:46;;;;;;;6.90;6.20;;;13.50;94.10;;;12.95;63.28;101100.06;5013820;28;20564;-71
2023/05/09 07:31:18;;;;;;;6.80;6.13;;;13.60;94.00;;;13.00;64.35;101095.03;5014548;28;20242;-71
2023/05/09 07:33:50;;;;;;;7.37;6.47;;;13.70;94.40;;;13.30;60.84;101098.91;5012789;28;20215;-71
2023/05/09 07:36:23;;;;;;;6.63;6.00;;;13.90;93.30;;;13.26;62.63;101081.44;5013739;28;20203;-71
2023/05/09 07:38:55;;;;;;;7.57;6.77;;;13.90;93.40;;;13.38;61.58;101083.63;5013790;28;20188;-71
2023/05/09 07:41:27;;;;;;;6.53;5.83;;;14.00;93.00;;;13.40;62.13;101078.91;5013709;28;20188;-71
2023/05/09 07:43:58;;;;;;;8.73;6.77;;;14.10;93.50;;;13.51;63.57;101070.50;5013343;28;20568;-71
2023/05/09 07:46:30;;;;;;;7.27;6.40;;;14.20;93.70;;;13.63;60.44;101070.97;5013924;28;20200;-71
2023/05/09 07:49:02;;;;;;;8.23;6.60;;;14.30;92.50;;;13.75;59.97;101069.59;5013506;28;20206;-71
2023/05/09 07:51:35;;;;;;;9.20;6.27;;;14.40;92.30;;;13.78;59.75;101066.56;5014104;28;20192;-71
2023/05/09 07:54:08;;;;;;;6.37;5.77;;;14.40;92.10;;;13.92;59.55;101062.28;5013258;28;20633;-71
2023/05/09 07:56:40;;;;;;;7.43;6.17;;;14.50;92.30;;;13.98;59.06;101059.75;5013563;28;20196;-71
2023/05/09 07:59:12;;;;;;;8.10;5.27;;;14.60;91.90;;;14.05;58.81;101058.03;5013661;28;20203;-71
2023/05/09 08:01:44;;;;;;;6.30;5.20;;;14.70;91.50;;;14.18;58.93;101054.75;5013518;28;20195;-71
2023/05/09 08:04:16;;;;;;;8.67;5.50;;;14.80;91.50;;;14.22;58.62;101045.31;5013719;28;20202;-71
2023/05/09 08:06:49;;;;;;;5.70;5.00;;;14.90;91.50;;;14.33;57.35;101046.78;5013210;28;20636;-71
2023/05/09 08:09:21;;;;;;;5.80;5.30;;;14.90;90.60;;;14.43;57.17;101034.81;5013312;28;20235;-71
2023/05/09 08:11:53;;;;;;;6.77;4.90;;;15.00;91.00;;;14.65;56.85;101023.22;5012949;28;20695;-71
2023/05/09 08:14:24;;;;;;;7.67;4.70;;;15.20;90.60;;;14.66;60.12;101024.03;5013163;28;20195;-71
2023/05/09 08:16:56;;;;;;;6.03;4.50;;;15.30;92.10;;;14.75;59.84;101031.06;5012863;28;20594;-71
2023/05/09 08:19:28;;;;;;;5.60;4.63;;;15.40;91.70;;;14.86;57.66;101033.34;5012817;28;20231;-71
2023/05/09 08:22:01;;;;;;;4.90;4.37;;;15.50;90.80;;;14.95;59.89;101024.16;5013121;28;20201;-71
2023/05/09 08:24:33;;;;;;;6.63;4.53;;;15.60;91.60;;;15.23;55.61;101024.41;5013115;28;20279;-71
2023/05/09 08:27:05;;;;;;;5.03;4.50;;;15.80;89.50;;;15.44;54.32;101023.69;5013179;28;20196;-71
2023/05/09 08:29:37;;;;;;;5.60;4.87;;;16.00;88.10;;;15.52;53.76;101024.44;5012808;28;20314;-71
2023/05/09 08:32:09;;;;;;;4.93;4.30;;;16.10;86.60;;;15.55;54.90;101021.38;5013028;28;20222;-71
2023/05/09 08:34:41;;;;;;;6.33;4.40;;;16.20;87.70;;;15.73;54.37;101019.16;5013184;28;20211;-71
2023/05/09 08:37:14;;;;;;;5.30;4.60;;;16.30;88.40;;;15.75;54.56;101016.28;5013174;28;20188;-71
2023/05/09 08:39:46;;;;;;;5.57;4.10;;;16.40;87.60;;;15.89;54.89;101007.28;5012754;28;20322;-71
2023/05/09 08:42:22;;;;;;;5.77;4.07;;;16.50;87.20;;;15.92;55.00;101001.53;5013008;28;20195;-71
2023/05/09 08:44:57;;;;;;;7.30;4.07;;;16.50;88.00;;;16.10;52.29;101003.81;5013738;28;20542;-72
2023/05/09 08:47:30;;;;;;;6.73;4.07;;;16.60;85.30;;;16.25;51.71;100999.22;5016547;28;20192;-72
2023/05/09 08:50:02;;;;;;;6.03;3.87;;;16.80;83.40;;;16.32;52.82;101005.53;5016578;28;20234;-72
2023/05/09 08:52:36;;;;;;;8.60;4.93;;;16.90;85.70;;;16.43;50.91;100988.00;5016529;28;20191;-72
2023/05/09 08:55:09;;;;;;;5.70;4.00;;;17.00;82.50;;;16.51;51.72;100995.94;5016203;28;20567;-72
2023/05/09 08:57:42;;;;;;;7.40;5.27;;;17.00;83.60;;;16.54;52.22;100985.59;5016093;28;20652;-72
2023/05/09 09:00:20;;;;;;;5.60;4.40;;;17.10;83.60;;;16.69;49.70;100988.28;5016327;28;20231;-72
2023/05/09 09:03:00;;;;;;;7.47;4.17;;;17.20;80.10;;;16.78;50.42;100992.50;5016044;28;20656;-72
2023/05/09 09:05:33;;;;;;;8.43;4.20;;;17.40;81.30;;;16.88;50.12;100992.19;5016354;28;20187;-72
2023/05/09 09:08:16;;;;;;;6.30;4.40;;;17.40;81.80;;;16.89;49.79;100999.25;5015864;28;20649;-72
2023/05/09 09:10:49;;;;;;;8.17;4.37;;;17.40;79.40;;;16.96;49.59;100989.34;5016101;28;20580;-72
2023/05/09 09:13:23;;;;;;;5.47;4.97;;;17.50;79.50;;;17.02;48.22;100981.28;5016088;28;20203;-72
2023/05/09 09:16:01;;;;;;;7.07;4.73;;;17.60;77.10;;;17.08;50.24;100976.97;5016109;28;20219;-72
2023/05/09 09:18:36;;;;;;;5.70;4.70;;;17.60;79.20;;;17.16;49.64;100968.66;5016067;28;20250;-72
2023/05/09 09:21:12;;;;;;;5.00;4.10;;;17.70;79.70;;;17.22;50.63;100968.75;5015892;28;20223;-72
2023/05/09 09:23:48;;;;;;;7.93;4.63;;;17.70;79.50;;;17.41;47.90;100972.59;5015687;28;20199;-72
2023/05/09 09:26:21;;;;;;;5.80;5.30;;;17.90;78.00;;;17.50;49.16;100965.97;5015892;28;20191;-72
2023/05/09 09:28:55;;;;;;;6.23;5.13;;;18.00;77.50;;;17.53;48.61;100960.19;5015859;28;20196;-72
2023/05/09 09:31:31;;;;;;;7.10;4.60;;;18.10;76.20;;;17.65;48.41;100958.59;5015382;28;20237;-72
2023/05/09 09:34:05;;;;;;;7.70;4.80;;;18.10;78.10;;;17.75;46.91;100963.63;5015341;28;20698;-72
2023/05/09 09:36:36;;;;;;;6.40;4.43;;;18.20;76.40;;;17.77;48.97;100961.59;5015702;28;20195;-72
2023/05/09 09:39:12;;;;;;;8.63;4.50;;;18.30;78.00;;;17.93;49.50;100954.97;5015612;28;20214;-72
2023/05/09 09:41:46;;;;;;;4.83;3.93;;;18.40;78.10;;;18.06;46.78;100944.16;5015562;28;20199;-70
2023/05/09 09:44:20;;;;;;;4.03;3.63;;;18.50;75.90;;;18.08;48.63;100948.34;5015162;28;20191;-70
2023/05/09 09:46:54;;;;;;;7.23;4.33;;;18.60;77.70;;;18.17;48.53;100940.88;5015350;28;20647;-71
2023/05/09 09:49:29;;;;;;;8.10;4.60;;;18.70;77.20;;;18.35;46.70;100932.16;5015399;28;20227;-71
2023/05/09 09:52:02;;;;;;;4.83;4.33;;;18.80;74.50;;;18.41;46.76;100936.75;5015286;28;20246;-71
2023/05/09 09:54:36;;;;;;;5.37;3.63;;;18.90;75.90;;;18.46;47.17;100913.38;5015271;28;20199;-72
2023/05/09 09:57:07;;;;;;;9.97;8.53;;;19.00;74.20;;;18.55;47.52;100912.19;5014685;28;20200;-72
2023/05/09 09:59:39;;;;;;;8.20;5.40;;;19.00;74.90;;;18.72;45.81;100915.31;5015218;28;20288;-73
2023/05/09 10:02:11;;;;;;;11.90;8.83;;;19.20;73.00;;;18.80;47.54;100911.56;5014994;28;20195;-73
2023/05/09 10:04:43;;;;;;;7.37;6.60;;;19.30;75.10;;;18.87;46.04;100906.97;5015210;28;20203;-72
2023/05/09 10:07:19;;;;;;;6.70;5.83;;;19.30;74.00;;;18.96;45.04;100911.97;5015178;28;20203;-72
2023/05/09 10:09:52;;;;;;;4.50;4.10;;;19.40;71.20;;;19.19;44.15;100893.34;5015042;28;20233;-72
2023/05/09 10:12:24;;;;;;;5.50;4.83;;;19.50;71.00;;;19.19;45.28;100896.06;5014790;28;20218;-72
2023/05/09 10:14:58;;;;;;;6.77;4.23;;;19.60;72.20;;;19.34;45.36;100895.81;5015561;28;20218;-72
2023/05/09 10:17:32;;;;;;;5.90;3.53;;;19.70;71.40;;;19.37;44.63;100884.50;5014993;28;20241;-72
2023/05/09 10:20:12;;;;;;;6.77;5.57;;;19.80;70.60;;;19.41;44.82;100888.50;5014552;28;20771;-72
2023/05/09 10:22:45;;;;;;;8.67;4.23;;;19.80;70.10;;;19.48;44.21;100885.75;5014665;28;20187;-72
2023/05/09 10:25:22;;;;;;;6.63;4.10;;;19.90;69.20;;;19.60;44.48;100874.00;5014851;28;20210;-72
2023/05/09 10:28:00;;;;;;;9.17;4.60;;;20.00;72.00;;;19.76;43.11;100877.28;5014529;28;20641;-72
2023/05/09 10:30:36;;;;;;;5.73;4.73;;;20.10;68.20;;;19.82;43.06;100865.53;5014808;28;20231;-73
2023/05/09 10:33:15;;;;;;;5.73;4.40;;;20.20;68.10;;;19.89;44.16;100866.34;5014556;28;20234;-73
2023/05/09 10:35:50;;;;;;;8.33;3.70;;;20.30;69.10;;;20.02;41.72;100861.66;5014872;28;20196;-73
2023/05/09 10:38:23;;;;;;;9.27;8.10;;;20.40;65.80;;;20.09;43.00;100850.75;5014494;28;20202;-73